Time;durP1;ratioP1;P1;durP2;ratioP2;P2;SDS_P1;SDS_P2;PMS_P1;PMS_P2;Temp;Humidity;BMP_temperature;BMP_pressure;BME280_temperature;BME280_humidity;BME280_pressure;Samples;Min_cycle;Max_cycle;Signal;HPM_P1;HPM_P2
2024/01/13 00:02:19;;;;;;;7.82;7.03;;;4.50;99.90;;;;;;5097832;28;20031;-35
2024/01/13 00:04:44;;;;;;;7.78;6.30;;;4.50;99.90;;;;;;5098000;28;20712;-35
2024/01/13 00:07:10;;;;;;;6.95;6.22;;;4.50;99.90;;;;;;5097256;28;20474;-35
2024/01/13 00:09:35;;;;;;;9.82;7.60;;;4.50;99.90;;;;;;5097484;28;20051;-36
2024/01/13 00:12:02;;;;;;;9.20;6.82;;;4.60;99.90;;;;;;5097717;28;20072;-36
2024/01/13 00:14:27;;;;;;;10.27;8.18;;;4.50;99.90;;;;;;5097784;28;20016;-36
2024/01/13 00:16:53;;;;;;;8.38;7.47;;;4.60;99.90;;;;;;5097213;28;20035;-36
2024/01/13 00:19:19;;;;;;;9.15;7.85;;;4.50;99.90;;;;;;5099162;28;20561;-36
2024/01/13 00:21:44;;;;;;;10.93;8.20;;;4.50;99.90;;;;;;5099027;28;20019;-36
2024/01/13 00:24:10;;;;;;;10.10;8.88;;;4.50;99.90;;;;;;5098319;28;20107;-35
2024/01/13 00:26:35;;;;;;;11.55;8.80;;;4.50;99.90;;;;;;5099548;28;20587;-36
2024/01/13 00:29:01;;;;;;;11.30;9.27;;;4.50;99.90;;;;;;5098989;28;20019;-36
2024/01/13 00:31:27;;;;;;;13.38;10.60;;;4.50;99.90;;;;;;5100106;28;20067;-37
2024/01/13 00:33:52;;;;;;;11.23;9.15;;;4.50;99.90;;;;;;5100329;28;20096;-35
2024/01/13 00:36:18;;;;;;;12.07;9.55;;;4.50;99.90;;;;;;5097875;28;20618;-36
2024/01/13 00:38:45;;;;;;;10.63;8.82;;;4.50;99.90;;;;;;5099746;28;20630;-36
2024/01/13 00:41:10;;;;;;;13.13;9.40;;;4.50;99.90;;;;;;5099016;28;20027;-35
2024/01/13 00:43:36;;;;;;;12.60;9.63;;;4.50;99.90;;;;;;5102989;28;20019;-35
2024/01/13 00:46:02;;;;;;;15.15;10.93;;;4.50;99.90;;;;;;5102661;28;20023;-34
2024/01/13 00:48:28;;;;;;;13.30;10.65;;;4.40;99.90;;;;;;5101801;28;20375;-36
2024/01/13 00:50:53;;;;;;;13.95;10.48;;;4.40;99.90;;;;;;5103560;28;20122;-36
2024/01/13 00:53:19;;;;;;;15.02;11.18;;;4.40;99.90;;;;;;5101691;28;20474;-37
2024/01/13 00:55:45;;;;;;;16.35;12.20;;;4.40;99.90;;;;;;5103279;28;20046;-35
2024/01/13 00:58:12;;;;;;;15.05;12.00;;;4.40;99.90;;;;;;5101569;28;20573;-37
2024/01/13 01:00:38;;;;;;;18.63;13.48;;;4.40;99.90;;;;;;5102586;28;20024;-35
2024/01/13 01:03:04;;;;;;;19.38;13.27;;;4.40;99.90;;;;;;5102384;28;20028;-42
2024/01/13 01:05:35;;;;;;;19.25;14.10;;;4.40;99.90;;;;;;5103247;28;20415;-35
2024/01/13 01:08:00;;;;;;;16.25;13.02;;;4.40;99.90;;;;;;5101683;28;20185;-35
2024/01/13 01:10:26;;;;;;;18.15;12.85;;;4.40;99.90;;;;;;5100882;28;20047;-36
2024/01/13 01:12:51;;;;;;;19.38;13.95;;;4.40;99.90;;;;;;5094861;28;20035;-37
2024/01/13 01:15:17;;;;;;;19.80;14.05;;;4.40;99.90;;;;;;5102283;28;20024;-37
2024/01/13 01:17:42;;;;;;;16.52;12.55;;;4.40;99.90;;;;;;5100821;28;20431;-35
2024/01/13 01:20:09;;;;;;;16.65;13.23;;;4.40;99.90;;;;;;5101003;28;20038;-36
2024/01/13 01:22:34;;;;;;;15.38;12.10;;;4.40;99.90;;;;;;5100056;28;20028;-40
2024/01/13 01:25:00;;;;;;;14.40;11.20;;;4.40;99.90;;;;;;5099532;28;20021;-36
2024/01/13 01:27:26;;;;;;;15.45;11.35;;;4.40;99.90;;;;;;5099425;28;20036;-36
2024/01/13 01:29:51;;;;;;;14.95;11.82;;;4.50;99.90;;;;;;5100487;28;20024;-36
2024/01/13 01:32:17;;;;;;;14.70;11.32;;;4.40;99.90;;;;;;5099956;28;20109;-36
2024/01/13 01:34:42;;;;;;;16.77;12.35;;;4.40;99.90;;;;;;5100819;28;20039;-36
2024/01/13 01:37:08;;;;;;;17.70;13.60;;;4.50;99.90;;;;;;5101462;28;20028;-37
2024/01/13 01:39:36;;;;;;;15.73;11.75;;;4.40;99.90;;;;;;5101971;28;20034;-37
2024/01/13 01:42:05;;;;;;;15.60;11.55;;;4.40;99.90;;;;;;5100351;28;20431;-35
2024/01/13 01:44:30;;;;;;;15.70;11.48;;;4.40;99.90;;;;;;5101057;28;20027;-35
2024/01/13 01:46:59;;;;;;;17.80;11.52;;;4.40;99.90;;;;;;5101926;28;20027;-36
2024/01/13 01:49:24;;;;;;;14.57;11.20;;;4.40;99.90;;;;;;5101834;28;20024;-37
2024/01/13 01:51:53;;;;;;;16.10;12.07;;;4.40;99.90;;;;;;5099971;28;20032;-36
2024/01/13 01:54:19;;;;;;;15.55;11.45;;;4.40;99.90;;;;;;5098699;28;20026;-36
2024/01/13 01:56:45;;;;;;;18.42;12.65;;;4.40;99.90;;;;;;5101563;28;20394;-36
2024/01/13 01:59:11;;;;;;;15.25;11.73;;;4.40;99.90;;;;;;5100897;28;20027;-37
2024/01/13 02:01:37;;;;;;;16.35;11.43;;;4.40;99.90;;;;;;5102142;28;20097;-36
2024/01/13 02:04:03;;;;;;;15.10;11.27;;;4.40;99.90;;;;;;5099815;28;20841;-36
2024/01/13 02:06:30;;;;;;;13.95;10.55;;;4.40;99.90;;;;;;5098078;28;20473;-36
2024/01/13 02:08:55;;;;;;;14.98;10.55;;;4.40;99.90;;;;;;5099732;28;20132;-37
2024/01/13 02:11:21;;;;;;;17.67;12.15;;;4.40;99.90;;;;;;5101475;28;20035;-38
2024/01/13 02:13:48;;;;;;;16.48;11.32;;;4.40;99.90;;;;;;5101327;28;20554;-36
2024/01/13 02:16:15;;;;;;;14.93;11.10;;;4.40;99.90;;;;;;5099804;28;20119;-36
2024/01/13 02:18:41;;;;;;;12.90;9.82;;;4.40;99.90;;;;;;5101248;28;20020;-36
2024/01/13 02:21:07;;;;;;;14.35;10.07;;;4.40;99.90;;;;;;5099674;28;20035;-36
2024/01/13 02:23:33;;;;;;;13.48;10.63;;;4.40;99.90;;;;;;5101604;28;20020;-37
2024/01/13 02:25:58;;;;;;;13.05;10.30;;;4.40;99.90;;;;;;5101042;28;20138;-36
2024/01/13 02:28:27;;;;;;;13.30;10.20;;;4.40;99.90;;;;;;5101171;28;20020;-36
2024/01/13 02:30:52;;;;;;;13.55;10.02;;;4.30;99.90;;;;;;5099879;28;20031;-35
2024/01/13 02:33:18;;;;;;;13.10;10.02;;;4.30;99.90;;;;;;5100844;28;20028;-37
2024/01/13 02:35:43;;;;;;;13.48;9.85;;;4.30;99.90;;;;;;5101191;28;20096;-37
2024/01/13 02:38:09;;;;;;;12.48;9.07;;;4.30;99.90;;;;;;5100507;28;20048;-36
2024/01/13 02:40:35;;;;;;;10.52;8.77;;;4.30;99.90;;;;;;5100264;28;20065;-36
2024/01/13 02:43:00;;;;;;;11.50;9.00;;;4.30;99.90;;;;;;5097561;28;20051;-35
2024/01/13 02:45:29;;;;;;;14.73;10.18;;;4.30;99.90;;;;;;5100045;28;20020;-34
2024/01/13 02:48:02;;;;;;;12.00;9.23;;;4.30;99.90;;;;;;5098886;28;20019;-37
2024/01/13 02:50:27;;;;;;;;;;;4.30;99.90;;;;;;5100634;28;20042;-36
2024/01/13 02:52:53;;;;;;;12.77;9.73;;;4.30;99.90;;;;;;5100164;28;20449;-37
2024/01/13 02:55:19;;;;;;;14.00;9.82;;;4.20;99.90;;;;;;5100407;28;20091;-37
2024/01/13 02:57:44;;;;;;;10.32;8.23;;;4.20;99.90;;;;;;5100634;28;20173;-36
2024/01/13 03:00:13;;;;;;;10.43;8.10;;;4.20;99.90;;;;;;5098852;28;20044;-36
2024/01/13 03:02:39;;;;;;;11.70;8.88;;;4.30;99.90;;;;;;5099891;28;20032;-37
2024/01/13 03:05:07;;;;;;;11.32;8.68;;;4.20;99.90;;;;;;5099649;28;20030;-36
2024/01/13 03:07:33;;;;;;;13.18;8.50;;;4.30;99.90;;;;;;5100137;28;20505;-36
2024/01/13 03:09:58;;;;;;;8.55;7.07;;;4.30;99.90;;;;;;5100899;28;20028;-37
2024/01/13 03:12:24;;;;;;;10.73;8.10;;;4.30;99.90;;;;;;5100759;28;20128;-37
2024/01/13 03:14:49;;;;;;;10.82;8.48;;;4.30;99.90;;;;;;5100231;28;20027;-37
2024/01/13 03:17:15;;;;;;;11.38;9.55;;;4.30;99.90;;;;;;5100252;28;20501;-37
2024/01/13 03:19:43;;;;;;;11.30;8.75;;;4.30;99.90;;;;;;5098613;28;20027;-36
2024/01/13 03:22:09;;;;;;;11.10;9.00;;;4.30;99.90;;;;;;5099485;28;20719;-36
2024/01/13 03:24:34;;;;;;;11.57;8.93;;;4.30;99.90;;;;;;5100304;28;20030;-37
2024/01/13 03:27:00;;;;;;;12.80;9.40;;;4.30;99.90;;;;;;5099566;28;20019;-36
2024/01/13 03:29:26;;;;;;;13.88;10.30;;;4.30;99.90;;;;;;5099823;28;20027;-41
2024/01/13 03:31:51;;;;;;;16.70;11.13;;;4.30;99.90;;;;;;5099391;28;20078;-36
2024/01/13 03:34:17;;;;;;;13.77;10.75;;;4.30;99.90;;;;;;5100043;28;20103;-37
2024/01/13 03:36:42;;;;;;;14.95;10.90;;;4.30;99.90;;;;;;5100490;28;20028;-36
2024/01/13 03:39:09;;;;;;;13.90;10.68;;;4.30;99.90;;;;;;5100235;28;20035;-36
2024/01/13 03:41:35;;;;;;;14.63;11.55;;;4.30;99.90;;;;;;5099660;28;20610;-36
2024/01/13 03:44:00;;;;;;;15.25;11.65;;;4.30;99.90;;;;;;5099176;28;20102;-35
2024/01/13 03:46:26;;;;;;;15.43;11.27;;;4.30;99.90;;;;;;5099810;28;20374;-35
2024/01/13 03:48:52;;;;;;;16.38;12.63;;;4.30;99.90;;;;;;5099181;28;20080;-36
2024/01/13 03:51:17;;;;;;;18.85;13.32;;;4.30;99.90;;;;;;5099662;28;20422;-35
2024/01/13 03:53:43;;;;;;;20.23;14.98;;;4.30;99.90;;;;;;5100084;28;20034;-37
2024/01/13 03:56:08;;;;;;;21.08;15.10;;;4.30;99.90;;;;;;5097862;28;20084;-35
2024/01/13 03:58:35;;;;;;;22.85;15.18;;;4.30;99.90;;;;;;5100038;28;20059;-35
2024/01/13 04:01:02;;;;;;;23.17;15.85;;;4.30;99.90;;;;;;5099754;28;20070;-35
2024/01/13 04:03:27;;;;;;;21.85;14.82;;;4.30;99.90;;;;;;5099855;28;20047;-35
2024/01/13 04:05:58;;;;;;;24.25;15.95;;;4.30;99.90;;;;;;5100357;28;20848;-36
2024/01/13 04:08:24;;;;;;;25.20;16.60;;;4.30;99.90;;;;;;5099515;28;20120;-36
2024/01/13 04:10:50;;;;;;;23.23;17.00;;;4.30;99.90;;;;;;5099829;28;20075;-36
2024/01/13 04:13:16;;;;;;;25.58;17.27;;;4.30;99.90;;;;;;5099684;28;20050;-35
2024/01/13 04:15:42;;;;;;;27.67;19.88;;;4.30;99.90;;;;;;5098700;28;20561;-38
2024/01/13 04:18:07;;;;;;;28.92;18.83;;;4.30;99.90;;;;;;5100838;28;20819;-35
2024/01/13 04:20:33;;;;;;;29.73;20.00;;;4.30;99.90;;;;;;5103529;28;20039;-36
2024/01/13 04:22:58;;;;;;;30.00;19.70;;;4.30;99.90;;;;;;5103373;28;20030;-35
2024/01/13 04:25:24;;;;;;;30.63;21.50;;;4.30;99.90;;;;;;5103847;28;20572;-36
2024/01/13 04:27:52;;;;;;;27.05;19.63;;;4.30;99.90;;;;;;5102543;28;20038;-35
2024/01/13 04:30:18;;;;;;;30.35;20.85;;;4.30;99.90;;;;;;5103075;28;20031;-35
2024/01/13 04:32:43;;;;;;;29.25;20.58;;;4.30;99.90;;;;;;5103666;28;20043;-36
2024/01/13 04:35:09;;;;;;;27.30;18.80;;;4.30;99.90;;;;;;5102876;28;20038;-35
2024/01/13 04:37:35;;;;;;;26.65;19.17;;;4.30;99.90;;;;;;5103391;28;20042;-35
2024/01/13 04:40:01;;;;;;;23.58;16.95;;;4.30;99.90;;;;;;5102861;28;20019;-35
2024/01/13 04:42:26;;;;;;;25.05;17.92;;;4.30;99.90;;;;;;5103346;28;20372;-36
2024/01/13 04:44:53;;;;;;;24.35;18.10;;;4.30;99.90;;;;;;5102794;28;20471;-36
2024/01/13 04:47:19;;;;;;;23.98;17.25;;;4.40;99.90;;;;;;5103908;28;20031;-36
2024/01/13 04:49:44;;;;;;;21.45;16.48;;;4.40;99.90;;;;;;5104218;28;20027;-35
2024/01/13 04:52:10;;;;;;;24.08;18.10;;;4.40;99.90;;;;;;5102698;28;20039;-35
2024/01/13 04:54:35;;;;;;;22.52;16.08;;;4.40;99.90;;;;;;5103700;28;20792;-35
2024/01/13 04:57:01;;;;;;;26.63;18.48;;;4.40;99.90;;;;;;5102350;28;20918;-35
2024/01/13 04:59:27;;;;;;;24.45;17.42;;;4.40;99.90;;;;;;5102212;28;20035;-36
2024/01/13 05:01:53;;;;;;;21.92;16.20;;;4.40;99.90;;;;;;5099890;28;20023;-35
2024/01/13 05:04:18;;;;;;;22.55;16.33;;;4.40;99.90;;;;;;5101998;28;20149;-36
2024/01/13 05:06:44;;;;;;;21.98;15.75;;;4.40;99.90;;;;;;5101558;28;20432;-36
2024/01/13 05:09:10;;;;;;;19.17;15.15;;;4.40;99.90;;;;;;5102015;28;20077;-36
2024/01/13 05:11:36;;;;;;;18.73;14.45;;;4.40;99.90;;;;;;5101841;28;20071;-36
2024/01/13 05:14:01;;;;;;;19.33;14.15;;;4.40;99.90;;;;;;5101804;28;20573;-37
2024/01/13 05:16:27;;;;;;;17.25;13.18;;;4.40;99.90;;;;;;5101000;28;20062;-36
2024/01/13 05:18:53;;;;;;;18.13;13.05;;;4.40;99.90;;;;;;5102290;28;20038;-36
2024/01/13 05:21:19;;;;;;;18.05;13.85;;;4.40;99.90;;;;;;5101918;28;20364;-36
2024/01/13 05:23:44;;;;;;;17.65;12.98;;;4.50;99.90;;;;;;5102615;28;20034;-37
2024/01/13 05:26:10;;;;;;;17.45;13.95;;;4.40;99.90;;;;;;5101276;28;20390;-40
2024/01/13 05:28:36;;;;;;;18.40;14.07;;;4.50;99.90;;;;;;5101781;28;20110;-36
2024/01/13 05:31:01;;;;;;;22.50;15.63;;;4.40;99.90;;;;;;5101574;28;20027;-36
2024/01/13 05:33:27;;;;;;;20.10;14.65;;;4.40;99.90;;;;;;5100945;28;20189;-35
2024/01/13 05:35:53;;;;;;;19.35;13.75;;;4.50;99.90;;;;;;5101949;28;20031;-36
2024/01/13 05:38:19;;;;;;;19.83;14.50;;;4.40;99.90;;;;;;5101190;28;20031;-37
2024/01/13 05:40:45;;;;;;;19.90;14.68;;;4.40;99.90;;;;;;5101456;28;20042;-37
2024/01/13 05:43:11;;;;;;;22.10;16.05;;;4.40;99.90;;;;;;5100564;28;20031;-37
2024/01/13 05:45:37;;;;;;;20.63;15.10;;;4.40;99.90;;;;;;5101941;28;20086;-36
2024/01/13 05:48:03;;;;;;;20.23;15.60;;;4.40;99.90;;;;;;5100738;28;20024;-36
2024/01/13 05:50:28;;;;;;;20.38;15.38;;;4.50;99.90;;;;;;5102504;28;20109;-36
2024/01/13 05:52:54;;;;;;;20.70;14.57;;;4.50;99.90;;;;;;5102065;28;20023;-37
2024/01/13 05:55:19;;;;;;;21.02;15.93;;;4.50;99.90;;;;;;5102258;28;20024;-37
2024/01/13 05:57:45;;;;;;;22.52;17.13;;;4.50;99.90;;;;;;5102694;28;20033;-36
2024/01/13 06:00:11;;;;;;;22.77;17.05;;;4.50;99.90;;;;;;5101528;28;20063;-45
2024/01/13 06:02:36;;;;;;;22.67;17.13;;;4.50;99.90;;;;;;5101526;28;20150;-36
2024/01/13 06:05:02;;;;;;;20.60;15.88;;;4.50;99.90;;;;;;5098982;28;20048;-35
2024/01/13 06:07:28;;;;;;;24.48;16.80;;;4.50;99.90;;;;;;5099287;28;20073;-36
2024/01/13 06:09:54;;;;;;;22.40;16.67;;;4.50;99.90;;;;;;5101110;28;20031;-37
2024/01/13 06:12:20;;;;;;;21.02;16.02;;;4.50;99.90;;;;;;5101637;28;20031;-37
2024/01/13 06:14:47;;;;;;;18.13;14.52;;;4.40;99.90;;;;;;5102147;28;20449;-36
2024/01/13 06:17:12;;;;;;;18.20;14.40;;;4.50;99.90;;;;;;5100462;28;20629;-36
2024/01/13 06:19:38;;;;;;;20.38;15.32;;;4.40;99.90;;;;;;5101123;28;20027;-36
2024/01/13 06:22:04;;;;;;;22.05;17.85;;;4.40;99.90;;;;;;5100934;28;20131;-36
2024/01/13 06:24:29;;;;;;;21.23;16.20;;;4.40;99.90;;;;;;5100123;28;20467;-36
2024/01/13 06:26:55;;;;;;;19.73;15.35;;;4.40;99.90;;;;;;5100548;28;20020;-37
2024/01/13 06:29:20;;;;;;;18.98;15.48;;;4.40;99.90;;;;;;5100466;28;20019;-37
2024/01/13 06:31:48;;;;;;;15.45;12.90;;;4.50;99.90;;;;;;5100819;28;20114;-36
2024/01/13 06:34:14;;;;;;;16.58;13.25;;;4.50;99.90;;;;;;5098000;28;20444;-36
2024/01/13 06:36:40;;;;;;;16.77;12.93;;;4.40;99.90;;;;;;5099694;28;20039;-36
2024/01/13 06:39:06;;;;;;;17.27;13.75;;;4.40;99.90;;;;;;5099631;28;20020;-36
2024/01/13 06:41:32;;;;;;;17.42;14.15;;;4.40;99.90;;;;;;5099175;28;20057;-36
2024/01/13 06:43:58;;;;;;;22.63;15.07;;;4.40;99.90;;;;;;5099092;28;20058;-37
2024/01/13 06:46:23;;;;;;;17.77;13.88;;;4.40;99.90;;;;;;5100664;28;20034;-37
2024/01/13 06:48:49;;;;;;;16.90;12.85;;;4.40;99.90;;;;;;5100183;28;20023;-37
2024/01/13 06:51:15;;;;;;;16.55;11.70;;;4.40;99.90;;;;;;5100207;28;20027;-37
2024/01/13 06:53:40;;;;;;;16.65;12.75;;;4.40;99.90;;;;;;5099431;28;20023;-36
2024/01/13 06:56:07;;;;;;;15.90;12.35;;;4.40;99.90;;;;;;5101099;28;20023;-37
2024/01/13 06:58:33;;;;;;;15.20;12.15;;;4.50;99.90;;;;;;5099329;28;20035;-34
2024/01/13 07:00:59;;;;;;;18.20;13.68;;;4.40;99.90;;;;;;5099597;28;20024;-36
2024/01/13 07:03:24;;;;;;;17.27;13.85;;;4.40;99.90;;;;;;5100165;28;20043;-35
2024/01/13 07:05:50;;;;;;;19.45;15.07;;;4.40;99.90;;;;;;5098096;28;20544;-37
2024/01/13 07:08:15;;;;;;;20.15;13.85;;;4.40;99.90;;;;;;5100092;28;20448;-35
2024/01/13 07:10:41;;;;;;;17.58;12.90;;;4.40;99.90;;;;;;5099531;28;20395;-35
2024/01/13 07:13:07;;;;;;;18.48;12.90;;;4.40;99.90;;;;;;5097836;28;20055;-36
2024/01/13 07:15:32;;;;;;;20.05;14.95;;;4.40;99.90;;;;;;5099425;28;20108;-36
2024/01/13 07:18:03;;;;;;;19.02;13.07;;;4.40;99.90;;;;;;5099298;28;20099;-36
2024/01/13 07:20:30;;;;;;;22.48;15.38;;;4.40;99.90;;;;;;5097522;28;20073;-36
2024/01/13 07:22:56;;;;;;;22.17;15.40;;;4.40;99.90;;;;;;5099481;28;20411;-37
2024/01/13 07:25:21;;;;;;;22.02;14.60;;;4.40;99.90;;;;;;5099059;28;20626;-36
2024/01/13 07:27:47;;;;;;;22.25;14.38;;;4.40;99.90;;;;;;5094385;28;20126;-36
2024/01/13 07:30:13;;;;;;;27.02;16.45;;;4.40;99.90;;;;;;5099815;28;20039;-35
2024/01/13 07:32:39;;;;;;;24.48;15.15;;;4.40;99.90;;;;;;5100221;28;20023;-36
2024/01/13 07:35:05;;;;;;;20.85;13.98;;;4.40;99.90;;;;;;5099008;28;20737;-37
2024/01/13 07:37:30;;;;;;;23.60;14.18;;;4.40;99.90;;;;;;5099417;28;20031;-37
2024/01/13 07:39:56;;;;;;;25.52;15.90;;;4.50;99.90;;;;;;5098753;28;20026;-35
2024/01/13 07:42:22;;;;;;;23.90;15.07;;;4.50;99.90;;;;;;5099362;28;20475;-36
2024/01/13 07:44:47;;;;;;;24.35;14.88;;;4.50;99.90;;;;;;5099343;28;20024;-37
2024/01/13 07:47:19;;;;;;;28.13;16.55;;;4.50;99.90;;;;;;5099707;28;20023;-36
2024/01/13 07:49:45;;;;;;;32.10;17.92;;;4.50;99.90;;;;;;5099747;28;20074;-36
2024/01/13 07:52:10;;;;;;;29.42;17.35;;;4.50;99.90;;;;;;5096420;28;20194;-36
2024/01/13 07:54:36;;;;;;;27.45;16.77;;;4.50;99.90;;;;;;5079936;28;20111;-35
2024/01/13 07:57:01;;;;;;;29.23;16.42;;;4.50;99.90;;;;;;5092869;28;20094;-36
2024/01/13 07:59:27;;;;;;;25.75;15.25;;;4.50;99.90;;;;;;5100177;28;20027;-36
2024/01/13 08:01:52;;;;;;;27.02;16.77;;;4.50;99.90;;;;;;5096869;28;20015;-35
2024/01/13 08:04:18;;;;;;;29.40;16.88;;;4.50;99.90;;;;;;5099372;28;20036;-35
2024/01/13 08:06:44;;;;;;;27.85;17.42;;;4.50;99.90;;;;;;5098579;28;20024;-35
2024/01/13 08:09:09;;;;;;;27.00;15.93;;;4.50;99.90;;;;;;5099139;28;20094;-35
2024/01/13 08:11:35;;;;;;;29.30;18.33;;;4.60;99.90;;;;;;5099154;28;20182;-36
2024/01/13 08:14:01;;;;;;;31.20;18.75;;;4.60;99.90;;;;;;5098172;28;20020;-37
2024/01/13 08:16:27;;;;;;;30.52;18.90;;;4.60;99.90;;;;;;5099937;28;20123;-35
2024/01/13 08:18:52;;;;;;;29.77;18.80;;;4.60;99.90;;;;;;5099692;28;20015;-35
2024/01/13 08:21:18;;;;;;;27.55;17.25;;;4.60;99.90;;;;;;5098619;28;20549;-36
2024/01/13 08:23:44;;;;;;;29.13;17.40;;;4.60;99.90;;;;;;5098818;28;20049;-36
2024/01/13 08:26:09;;;;;;;27.48;17.17;;;4.60;99.90;;;;;;5097376;28;20035;-35
2024/01/13 08:28:35;;;;;;;27.52;17.17;;;4.60;99.90;;;;;;5097122;28;20039;-38
2024/01/13 08:31:01;;;;;;;27.50;17.42;;;4.60;99.90;;;;;;5096304;28;20826;-36
2024/01/13 08:33:26;;;;;;;28.25;18.40;;;4.60;99.90;;;;;;5098546;28;20047;-36
2024/01/13 08:35:52;;;;;;;28.52;17.60;;;4.60;99.90;;;;;;5099292;28;20517;-36
2024/01/13 08:38:17;;;;;;;27.92;17.10;;;4.60;99.90;;;;;;5097584;28;20027;-36
2024/01/13 08:40:45;;;;;;;26.27;17.17;;;4.60;99.90;;;;;;5099129;28;20058;-36
2024/01/13 08:43:14;;;;;;;27.90;17.70;;;4.70;99.90;;;;;;5098764;28;20055;-36
2024/01/13 08:45:39;;;;;;;25.35;15.80;;;4.60;99.90;;;;;;5097618;28;20186;-36
2024/01/13 08:48:05;;;;;;;31.77;18.75;;;4.70;99.90;;;;;;5099002;28;20027;-36
2024/01/13 08:50:34;;;;;;;22.38;15.48;;;4.70;99.90;;;;;;5098321;28;20143;-36
2024/01/13 08:52:59;;;;;;;21.70;14.75;;;4.70;99.90;;;;;;5097017;28;20028;-36
2024/01/13 08:55:25;;;;;;;22.80;15.43;;;4.70;99.90;;;;;;5096271;28;20032;-36
2024/01/13 08:57:51;;;;;;;23.17;15.65;;;4.70;99.90;;;;;;5096237;28;20016;-36
2024/01/13 09:00:17;;;;;;;22.40;14.80;;;4.70;99.90;;;;;;5096662;28;20039;-36
2024/01/13 09:02:43;;;;;;;24.20;16.48;;;4.80;99.90;;;;;;5097754;28;20163;-36
2024/01/13 09:05:13;;;;;;;26.85;16.85;;;4.80;99.90;;;;;;5095617;28;20349;-35
2024/01/13 09:07:38;;;;;;;24.70;17.52;;;4.80;99.90;;;;;;5098479;28;20027;-35
2024/01/13 09:10:04;;;;;;;21.98;16.38;;;4.80;99.90;;;;;;5102648;28;20042;-35
2024/01/13 09:12:30;;;;;;;23.17;17.13;;;4.80;99.90;;;;;;5102802;28;20685;-35
2024/01/13 09:14:56;;;;;;;22.45;16.83;;;4.80;99.90;;;;;;5100652;28;20019;-35
2024/01/13 09:17:22;;;;;;;18.63;14.05;;;4.80;99.90;;;;;;5083137;28;20065;-35
2024/01/13 09:19:48;;;;;;;22.70;16.35;;;4.80;99.90;;;;;;5095417;28;20687;-36
2024/01/13 09:22:13;;;;;;;19.75;15.27;;;4.80;99.90;;;;;;5102819;28;20148;-36
2024/01/13 09:24:41;;;;;;;18.30;14.07;;;4.80;99.90;;;;;;5103278;28;20020;-36
2024/01/13 09:27:07;;;;;;;16.70;12.85;;;4.80;99.90;;;;;;5102086;28;20523;-36
2024/01/13 09:29:33;;;;;;;18.52;14.45;;;4.80;99.90;;;;;;5102702;28;20024;-36
2024/01/13 09:31:59;;;;;;;21.13;15.35;;;4.90;99.90;;;;;;5101297;28;20055;-36
2024/01/13 09:34:24;;;;;;;18.73;14.50;;;4.80;99.90;;;;;;5100511;28;20100;-36
2024/01/13 09:36:50;;;;;;;17.10;13.50;;;4.80;99.90;;;;;;5102930;28;20031;-36
2024/01/13 09:39:16;;;;;;;22.27;15.27;;;4.80;99.90;;;;;;5102314;28;20405;-42
2024/01/13 09:41:47;;;;;;;18.48;14.35;;;4.80;99.90;;;;;;5102363;28;20599;-36
2024/01/13 09:44:23;;;;;;;19.40;14.70;;;4.80;99.90;;;;;;5101296;28;20495;-35
2024/01/13 09:46:51;;;;;;;21.75;15.73;;;4.80;99.90;;;;;;5102222;28;20058;-36
2024/01/13 09:49:18;;;;;;;17.92;13.95;;;4.80;99.90;;;;;;5101817;28;20028;-36
2024/01/13 09:51:45;;;;;;;17.52;13.50;;;4.80;99.90;;;;;;5101604;28;20039;-36
2024/01/13 09:54:30;;;;;;;16.30;12.30;;;4.80;99.90;;;;;;5101575;28;20031;-35
2024/01/13 09:57:00;;;;;;;19.23;14.80;;;4.80;99.90;;;;;;5100667;28;20027;-37
2024/01/13 09:59:28;;;;;;;19.73;13.35;;;4.80;99.90;;;;;;5101367;28;20032;-37
2024/01/13 10:01:54;;;;;;;16.42;12.23;;;4.90;99.90;;;;;;5100243;28;20036;-36
2024/01/13 10:04:20;;;;;;;15.15;11.60;;;4.90;99.90;;;;;;5100325;28;20024;-37
2024/01/13 10:06:47;;;;;;;11.90;9.05;;;4.90;99.90;;;;;;5100157;28;20038;-36
2024/01/13 10:09:13;;;;;;;12.93;9.63;;;4.90;99.90;;;;;;5099812;28;20060;-36
2024/01/13 10:11:39;;;;;;;10.45;8.70;;;4.90;99.90;;;;;;5101848;28;20960;-37
2024/01/13 10:14:12;;;;;;;12.95;9.43;;;5.00;99.90;;;;;;5099455;28;20023;-37
2024/01/13 10:16:37;;;;;;;11.40;8.52;;;4.90;99.90;;;;;;5100654;28;20057;-37
2024/01/13 10:19:08;;;;;;;11.40;8.82;;;4.90;99.90;;;;;;5101799;28;20053;-37
2024/01/13 10:21:35;;;;;;;10.35;8.02;;;4.90;99.90;;;;;;5097935;28;20061;-36
2024/01/13 10:24:02;;;;;;;11.35;8.35;;;4.90;99.90;;;;;;5100461;28;20019;-37
2024/01/13 10:26:29;;;;;;;11.05;7.60;;;4.90;99.90;;;;;;5101270;28;20102;-37
2024/01/13 10:28:59;;;;;;;9.93;8.13;;;4.90;99.90;;;;;;5099808;28;20789;-37
2024/01/13 10:31:25;;;;;;;12.85;9.00;;;4.90;99.90;;;;;;5101059;28;20027;-36
2024/01/13 10:33:52;;;;;;;12.18;8.82;;;4.90;99.90;;;;;;5100406;28;20024;-37
2024/01/13 10:36:22;;;;;;;14.18;10.18;;;4.90;99.90;;;;;;5100474;28;20163;-37
2024/01/13 10:38:51;;;;;;;15.15;10.23;;;4.90;99.90;;;;;;5090773;28;20035;-36
2024/01/13 10:41:22;;;;;;;12.77;9.68;;;4.90;99.90;;;;;;5094657;28;20028;-36
2024/01/13 10:43:52;;;;;;;12.25;8.68;;;4.90;99.90;;;;;;5098005;28;20030;-36
2024/01/13 10:46:21;;;;;;;12.80;10.05;;;4.90;99.90;;;;;;5098972;28;20080;-36
2024/01/13 10:48:50;;;;;;;12.90;9.60;;;5.00;99.90;;;;;;5095905;28;20043;-36
2024/01/13 10:51:25;;;;;;;12.07;9.65;;;5.00;99.90;;;;;;5098998;28;20907;-35
2024/01/13 10:53:52;;;;;;;17.30;12.65;;;4.90;99.90;;;;;;5094785;28;20052;-37
2024/01/13 10:56:19;;;;;;;18.55;14.32;;;4.90;99.90;;;;;;5099044;28;20036;-36
2024/01/13 10:58:46;;;;;;;16.92;13.57;;;4.90;99.90;;;;;;5095508;28;20779;-36
2024/01/13 11:01:12;;;;;;;18.55;13.40;;;4.90;99.90;;;;;;5098276;28;20815;-37
2024/01/13 11:03:40;;;;;;;17.77;13.63;;;4.80;99.90;;;;;;5099354;28;20019;-37
2024/01/13 11:06:06;;;;;;;22.35;16.05;;;4.90;99.90;;;;;;5097340;28;20039;-37
2024/01/13 11:08:31;;;;;;;20.40;15.40;;;4.90;99.90;;;;;;5100050;28;20059;-38
2024/01/13 11:11:01;;;;;;;19.38;14.70;;;4.90;99.90;;;;;;5099541;28;20104;-37
2024/01/13 11:13:31;;;;;;;22.45;16.42;;;4.90;99.90;;;;;;5099428;28;20040;-36
2024/01/13 11:16:13;;;;;;;20.20;15.75;;;4.90;99.90;;;;;;5098193;28;20106;-36
2024/01/13 11:18:46;;;;;;;20.38;15.65;;;4.90;99.90;;;;;;5092753;28;20371;-37
2024/01/13 11:21:12;;;;;;;20.10;15.57;;;4.90;99.90;;;;;;5097719;28;20031;-38
2024/01/13 11:23:46;;;;;;;22.27;16.55;;;4.90;99.90;;;;;;5098044;28;20118;-37
2024/01/13 11:26:16;;;;;;;21.02;14.07;;;4.90;99.90;;;;;;5096490;28;20118;-37
2024/01/13 11:28:55;;;;;;;19.20;13.63;;;4.90;99.90;;;;;;5097230;28;20016;-36
2024/01/13 11:31:30;;;;;;;18.88;13.32;;;4.90;99.90;;;;;;5096633;28;20372;-35
2024/01/13 11:33:59;;;;;;;23.95;16.70;;;4.90;99.90;;;;;;5093894;28;20031;-35
2024/01/13 11:36:27;;;;;;;26.77;18.05;;;5.00;99.90;;;;;;5097820;28;20164;-36
2024/01/13 11:38:55;;;;;;;20.48;15.38;;;4.90;99.90;;;;;;5098450;28;20432;-36
2024/01/13 11:41:21;;;;;;;24.38;17.00;;;4.90;99.90;;;;;;5099000;28;20028;-36
2024/01/13 11:43:48;;;;;;;25.77;19.05;;;4.90;99.90;;;;;;5098752;28;20027;-37
2024/01/13 11:46:17;;;;;;;24.20;18.52;;;4.90;99.90;;;;;;5098152;28;20147;-36
2024/01/13 11:48:43;;;;;;;28.00;18.35;;;4.90;99.90;;;;;;5098611;28;20107;-38
2024/01/13 11:51:12;;;;;;;29.10;19.15;;;4.90;99.90;;;;;;5097597;28;20039;-36
2024/01/13 11:53:45;;;;;;;27.42;20.23;;;4.90;99.90;;;;;;5098147;28;20031;-37
2024/01/13 11:56:11;;;;;;;;;;;4.90;99.90;;;;;;5098668;28;20024;-37
2024/01/13 11:58:39;;;;;;;31.88;21.75;;;4.90;99.90;;;;;;5098353;28;20374;-35
2024/01/13 12:01:06;;;;;;;30.45;20.92;;;4.90;99.90;;;;;;5094739;28;20055;-38
2024/01/13 12:03:32;;;;;;;32.47;22.95;;;4.90;99.90;;;;;;5099460;28;20484;-38
2024/01/13 12:05:58;;;;;;;26.90;19.45;;;4.90;99.90;;;;;;5093721;28;20106;-39
2024/01/13 12:08:25;;;;;;;29.08;19.20;;;4.90;99.90;;;;;;5087425;28;20052;-36
2024/01/13 12:10:53;;;;;;;29.98;20.63;;;4.90;99.90;;;;;;5092921;28;20031;-35
2024/01/13 12:13:20;;;;;;;30.00;21.20;;;4.90;99.90;;;;;;5096488;28;20568;-36
2024/01/13 12:15:46;;;;;;;31.98;22.38;;;5.00;99.90;;;;;;5096010;28;20064;-36
2024/01/13 12:18:25;;;;;;;29.15;20.83;;;5.10;99.90;;;;;;5080090;28;20059;-36
2024/01/13 12:21:03;;;;;;;29.52;20.50;;;5.10;99.90;;;;;;5095054;28;20030;-36
2024/01/13 12:23:29;;;;;;;32.10;20.73;;;5.20;99.90;;;;;;5096927;28;20115;-35
2024/01/13 12:25:54;;;;;;;32.95;22.67;;;5.20;99.90;;;;;;5098813;28;20160;-36
2024/01/13 12:28:20;;;;;;;33.65;22.17;;;5.20;99.90;;;;;;5098155;28;20036;-36
2024/01/13 12:30:49;;;;;;;31.05;21.15;;;5.20;99.90;;;;;;5099096;28;20070;-37
2024/01/13 12:33:16;;;;;;;32.30;22.10;;;5.10;99.90;;;;;;5099749;28;20035;-37
2024/01/13 12:35:42;;;;;;;32.17;21.08;;;5.10;99.90;;;;;;5094464;28;20020;-37
2024/01/13 12:38:08;;;;;;;31.73;22.05;;;5.10;99.90;;;;;;5096065;28;20109;-38